Braxton, Indiana
Current Conditions -  °F | °C
As of 5:35 AM on Saturday 01 Nov 2014 (Local Time) from KHNB Reporting Station
Broken Clouds Broken Clouds  
Wind Chill: 25°   Ceiling: 5500
Heat Index: 34°   Visibility: 10mi
Dew Point: 25°   Wind: 13mph
Humidity: 70%   Direction: 40°NE
Pressure: 30.24"   Gusts: 23mph
Location:  38.5454°N, 86.4243°W
Report Text: KHNB 010935Z AUTO 04011G20KT 10SM BKN055 01/M04 A3024 RMK AO1
Loading
Personal Weather Stations






























Interactive Weather Map
Tropical Storm Tracking
New forecast layout! Learn more

10-Day Weather Forecast

Advertisements
Track Severe Weather on mobile